Dati Storici

Data ora Umidita' aria (%) Temperatura aria (°C) Rad globale (W/m²) Gonioanemometro (°) Tacoanemometro (m/s) Pioggia (mm)
05-11-2012 16:10 63.4 % 17.465 197.749 250.183 2.342 0
05-11-2012 16:00 61.5 % 17.289 225.834 204.407 6.646 0
05-11-2012 15:50 60 % 17.869 249.332 267.268 4.625 0
05-11-2012 15:40 60.2 % 17.995 274.386 223.939 2.509 0
05-11-2012 15:30 61.9 % 18.023 296.419 276.873 3.772 0
05-11-2012 15:20 62.4 % 17.886 320.151 237.44 6.085 0
05-11-2012 15:10 63.1 % 17.952 332.806 268.827 5.825 0
05-11-2012 15:00 66.5 % 18.197 360.234 244.619 2.062 0
05-11-2012 14:50 67.9 % 18.052 380.141 212.95 1.821 0
05-11-2012 14:40 68.4 % 17.896 391.655 231.85 3.754 0
05-11-2012 14:30 67.7 % 17.606 407.837 225.287 5.264 0
05-11-2012 14:20 68.2 % 17.564 420.954 224.941 4.688 0
05-11-2012 14:10 71.3 % 17.692 434.254 229.366 2.455 0
05-11-2012 14:00 72.5 % 17.413 446.458 219.15 4.139 0
05-11-2012 13:50 71.8 % 17.089 450.546 200.588 5.13 0
05-11-2012 13:40 72.1 % 16.955 479.505 206.539 3.521 0
05-11-2012 13:30 73.8 % 17.01 403.68 229.738 1.605 0
05-11-2012 13:20 73.4 % 17.516 155.717 214.956 2.511 0
05-11-2012 13:10 72.9 % 17.809 503.029 176.004 3.178 0
05-11-2012 13:00 73.4 % 17.631 488.921 172.004 1.223 0

I dati sono presentati in modo automatico a scopo informativo. In seguito a verifica i dati possono subire modifiche o essere invalidati e non riportati negli archivi definitivi.